Time;durP1;ratioP1;P1;durP2;ratioP2;P2;SDS_P1;SDS_P2;PMS_P1;PMS_P2;Temp;Humidity;BMP_temperature;BMP_pressure;BME280_temperature;BME280_humidity;BME280_pressure;Samples;Min_cycle;Max_cycle;Signal;HPM_P1;HPM_P2
2020/12/24 00:00:11;;;;;;;1.95;0.50;;;10.60;99.90;;;;;;5013583;28;20036;-81
2020/12/24 00:02:36;;;;;;;2.50;0.60;;;10.60;99.90;;;;;;5025053;28;20037;-80
2020/12/24 00:05:02;;;;;;;2.03;0.85;;;10.70;99.90;;;;;;5015256;28;20064;-81
2020/12/24 00:07:28;;;;;;;1.77;0.28;;;10.70;99.90;;;;;;5013187;28;20038;-80
2020/12/24 00:09:53;;;;;;;5.57;0.55;;;10.80;99.90;;;;;;5016937;28;20033;-81
2020/12/24 00:12:19;;;;;;;0.50;0.10;;;10.90;96.70;;;;;;5016247;28;20018;-81
2020/12/24 00:14:44;;;;;;;1.05;0.28;;;10.90;93.50;;;;;;5014317;28;20111;-81
2020/12/24 00:17:10;;;;;;;0.50;0.30;;;11.00;92.60;;;;;;4999973;28;20382;-81
2020/12/24 00:19:37;;;;;;;0.35;0.30;;;11.00;92.00;;;;;;5013823;28;20069;-81
2020/12/24 00:22:03;;;;;;;2.08;0.43;;;10.90;91.20;;;;;;5019213;28;20501;-81
2020/12/24 00:24:28;;;;;;;1.45;0.43;;;10.90;90.10;;;;;;5016346;28;20056;-81
2020/12/24 00:26:54;;;;;;;1.10;0.38;;;11.00;89.70;;;;;;5018449;28;20030;-81
2020/12/24 00:29:19;;;;;;;1.00;0.28;;;11.00;86.60;;;;;;5008311;28;20525;-81
2020/12/24 00:31:45;;;;;;;0.57;0.30;;;10.90;88.90;;;;;;5018370;28;20451;-82
2020/12/24 00:34:10;;;;;;;1.58;0.22;;;10.90;88.20;;;;;;5019030;28;20038;-81
2020/12/24 00:36:36;;;;;;;1.23;0.32;;;10.90;86.40;;;;;;5016157;28;20034;-82
2020/12/24 00:39:02;;;;;;;2.45;0.60;;;10.80;89.10;;;;;;5016727;28;20586;-81
2020/12/24 00:41:28;;;;;;;0.73;0.22;;;10.80;88.30;;;;;;5012607;28;20036;-81
2020/12/24 00:43:53;;;;;;;0.93;0.30;;;10.80;88.40;;;;;;5014580;28;20209;-81
2020/12/24 00:46:19;;;;;;;5.50;0.57;;;10.80;88.50;;;;;;5000440;28;20080;-81
2020/12/24 00:48:45;;;;;;;1.15;0.45;;;10.70;90.60;;;;;;5016396;28;20618;-81
2020/12/24 00:51:11;;;;;;;0.75;0.30;;;10.50;92.00;;;;;;5017783;28;20674;-80
2020/12/24 00:53:36;;;;;;;5.05;0.40;;;10.50;93.50;;;;;;4995665;28;20037;-80
2020/12/24 00:56:02;;;;;;;3.30;1.00;;;10.30;93.90;;;;;;5001568;28;20134;-80
2020/12/24 00:58:28;;;;;;;4.57;0.43;;;10.20;94.90;;;;;;5021431;28;20034;-80
2020/12/24 01:00:54;;;;;;;3.38;0.40;;;10.20;94.10;;;;;;5010867;28;20025;-81
2020/12/24 01:03:19;;;;;;;3.50;0.50;;;10.10;95.00;;;;;;5018041;28;20026;-84
2020/12/24 01:05:45;;;;;;;1.23;0.40;;;10.00;97.20;;;;;;5015517;28;20040;-86
2020/12/24 01:08:10;;;;;;;0.30;0.20;;;10.00;97.20;;;;;;5017920;28;20400;-85
2020/12/24 01:10:36;;;;;;;2.53;0.60;;;10.00;98.10;;;;;;5020514;28;20053;-83
2020/12/24 01:13:02;;;;;;;1.38;0.50;;;9.90;98.40;;;;;;5018559;28;20092;-82
2020/12/24 01:15:27;;;;;;;2.53;0.38;;;9.90;99.90;;;;;;5014373;28;20056;-81
2020/12/24 01:17:53;;;;;;;0.65;0.30;;;9.70;99.90;;;;;;5017726;28;20045;-83
2020/12/24 01:20:18;;;;;;;1.77;0.55;;;9.70;99.90;;;;;;5017331;28;20034;-80
2020/12/24 01:22:44;;;;;;;2.55;0.40;;;9.60;99.90;;;;;;5015678;28;20045;-80
2020/12/24 01:25:09;;;;;;;1.33;0.45;;;9.60;99.90;;;;;;5016051;28;20043;-82
2020/12/24 01:27:35;;;;;;;3.08;0.80;;;9.50;99.90;;;;;;5016788;28;20072;-80
2020/12/24 01:30:01;;;;;;;2.42;0.75;;;9.50;99.90;;;;;;5016734;28;20034;-80
2020/12/24 01:32:26;;;;;;;4.68;0.80;;;9.40;99.90;;;;;;5017641;28;20040;-80
2020/12/24 01:34:52;;;;;;;7.88;0.60;;;9.40;99.90;;;;;;5014909;28;20053;-81
2020/12/24 01:37:18;;;;;;;1.75;0.60;;;9.40;99.90;;;;;;5011169;28;20577;-82
2020/12/24 01:39:43;;;;;;;1.33;0.60;;;9.30;99.90;;;;;;4997347;28;20077;-81
2020/12/24 01:42:09;;;;;;;3.55;0.93;;;9.30;99.90;;;;;;5014148;28;20073;-81
2020/12/24 01:44:34;;;;;;;3.90;0.52;;;9.30;99.90;;;;;;5007721;28;20528;-80
2020/12/24 01:47:00;;;;;;;3.13;0.75;;;9.30;99.90;;;;;;5010336;28;20038;-82
2020/12/24 01:49:26;;;;;;;3.65;0.63;;;9.30;99.90;;;;;;5008979;28;20094;-80
2020/12/24 01:51:53;;;;;;;3.72;0.50;;;9.30;99.90;;;;;;5011349;28;20037;-80
2020/12/24 01:54:21;;;;;;;2.67;0.88;;;9.30;99.90;;;;;;5018484;28;20086;-82
2020/12/24 01:56:48;;;;;;;1.42;0.70;;;9.30;99.90;;;;;;5004848;28;20034;-79
2020/12/24 01:59:15;;;;;;;3.13;0.90;;;9.30;99.90;;;;;;5002578;28;20067;-82
2020/12/24 02:01:43;;;;;;;1.98;0.50;;;9.30;99.90;;;;;;5009376;28;20026;-82
2020/12/24 02:04:10;;;;;;;3.72;0.70;;;9.30;99.90;;;;;;5013669;28;20036;-80
2020/12/24 02:06:36;;;;;;;2.08;0.52;;;9.30;99.90;;;;;;5011449;28;20045;-81
2020/12/24 02:09:01;;;;;;;1.15;0.25;;;9.40;99.90;;;;;;5014412;28;20374;-81
2020/12/24 02:11:27;;;;;;;0.82;0.50;;;9.40;99.90;;;;;;5014339;28;20060;-80
2020/12/24 02:13:52;;;;;;;2.17;0.50;;;9.40;99.90;;;;;;5004794;28;20148;-80
2020/12/24 02:16:18;;;;;;;1.38;0.30;;;9.40;99.90;;;;;;5001134;28;20033;-80
2020/12/24 02:18:43;;;;;;;3.38;0.50;;;9.40;99.90;;;;;;5013581;28;20043;-81
2020/12/24 02:21:09;;;;;;;4.18;0.60;;;9.40;99.90;;;;;;5018899;28;20335;-81
2020/12/24 02:23:34;;;;;;;2.00;0.50;;;9.40;99.90;;;;;;5018154;28;20087;-77
2020/12/24 02:26:00;;;;;;;1.77;0.50;;;9.30;99.90;;;;;;5015171;28;20738;-79
2020/12/24 02:28:26;;;;;;;6.20;0.57;;;9.50;99.90;;;;;;4993393;28;20501;-80
2020/12/24 02:30:51;;;;;;;6.38;0.50;;;9.30;99.90;;;;;;5014835;28;20037;-79
2020/12/24 02:33:17;;;;;;;5.57;0.60;;;9.40;99.90;;;;;;4998684;28;20033;-80
2020/12/24 02:35:42;;;;;;;1.60;0.30;;;9.30;99.90;;;;;;5002790;28;20580;-80
2020/12/24 02:38:08;;;;;;;1.52;0.65;;;9.20;99.90;;;;;;5006396;28;20052;-81
2020/12/24 02:40:33;;;;;;;3.30;0.43;;;9.10;99.90;;;;;;5021329;28;20048;-79
2020/12/24 02:42:59;;;;;;;2.50;0.60;;;9.10;99.90;;;;;;5019638;28;20029;-78
2020/12/24 02:45:24;;;;;;;2.65;0.55;;;9.00;99.90;;;;;;5021030;28;20123;-79
2020/12/24 02:47:50;;;;;;;1.55;0.25;;;8.90;99.90;;;;;;5018970;28;20055;-81
2020/12/24 02:50:16;;;;;;;2.15;0.38;;;9.00;99.90;;;;;;5016782;28;20552;-80
2020/12/24 02:52:41;;;;;;;0.22;0.13;;;8.90;99.90;;;;;;5023356;28;20049;-81
2020/12/24 02:55:06;;;;;;;1.48;0.40;;;8.90;99.90;;;;;;5025150;28;20615;-82
2020/12/24 02:57:33;;;;;;;5.78;0.57;;;8.90;99.90;;;;;;5025237;28;20037;-79
2020/12/24 03:00:02;;;;;;;3.63;0.35;;;8.90;99.90;;;;;;5022547;28;20492;-81
2020/12/24 03:02:27;;;;;;;0.57;0.40;;;8.90;99.00;;;;;;5026475;28;20049;-81
2020/12/24 03:04:53;;;;;;;4.30;0.40;;;9.00;97.50;;;;;;5020343;28;20635;-80
2020/12/24 03:07:18;;;;;;;4.50;0.50;;;8.90;97.90;;;;;;5034093;28;20022;-78
2020/12/24 03:09:44;;;;;;;2.05;0.63;;;8.80;99.00;;;;;;5024350;28;20056;-79
2020/12/24 03:12:11;;;;;;;4.35;0.60;;;8.80;99.20;;;;;;5032986;28;20033;-79
2020/12/24 03:14:37;;;;;;;2.60;0.60;;;8.80;99.40;;;;;;5021219;28;20133;-80
2020/12/24 03:17:02;;;;;;;0.80;0.40;;;8.80;99.90;;;;;;5028996;28;20045;-79
2020/12/24 03:19:28;;;;;;;7.65;0.57;;;8.70;99.90;;;;;;5037032;28;20092;-79
2020/12/24 03:21:53;;;;;;;1.48;0.55;;;8.80;99.90;;;;;;5020572;28;20587;-81
2020/12/24 03:24:19;;;;;;;2.85;0.43;;;8.70;99.90;;;;;;5016555;28;20037;-79
2020/12/24 03:26:44;;;;;;;1.65;0.30;;;8.70;99.90;;;;;;5021157;28;20034;-81
2020/12/24 03:29:10;;;;;;;0.90;0.22;;;8.80;99.90;;;;;;5019906;28;20037;-79
2020/12/24 03:31:35;;;;;;;0.25;0.17;;;8.70;99.90;;;;;;5020086;28;20187;-80
2020/12/24 03:34:01;;;;;;;2.55;0.40;;;8.80;99.90;;;;;;5020107;28;20034;-82
2020/12/24 03:36:26;;;;;;;0.65;0.20;;;8.70;99.90;;;;;;5020454;28;20033;-81
2020/12/24 03:38:52;;;;;;;2.03;0.40;;;8.60;99.90;;;;;;5003577;28;20504;-82
2020/12/24 03:41:17;;;;;;;1.95;0.28;;;8.60;99.90;;;;;;5024225;28;20168;-79
2020/12/24 03:43:43;;;;;;;0.50;0.25;;;8.70;99.90;;;;;;5005572;28;20096;-83
2020/12/24 03:46:08;;;;;;;0.88;0.20;;;8.60;99.90;;;;;;4998051;28;20145;-78
2020/12/24 03:48:34;;;;;;;0.38;0.17;;;8.70;99.90;;;;;;5013868;28;20037;-80
2020/12/24 03:51:00;;;;;;;1.52;0.70;;;8.60;99.90;;;;;;5021687;28;20034;-83
2020/12/24 03:53:25;;;;;;;3.33;0.35;;;8.60;99.90;;;;;;5016653;28;20057;-81
2020/12/24 03:55:51;;;;;;;0.28;0.20;;;8.50;99.90;;;;;;5020089;28;20060;-81
2020/12/24 03:58:16;;;;;;;0.73;0.20;;;8.40;99.90;;;;;;5002903;28;20029;-81
2020/12/24 04:00:42;;;;;;;1.77;0.35;;;8.50;99.90;;;;;;5020360;28;20029;-78
2020/12/24 04:03:07;;;;;;;1.42;0.25;;;8.40;99.90;;;;;;5017543;28;20056;-83
2020/12/24 04:05:33;;;;;;;3.70;0.98;;;8.50;99.90;;;;;;5022578;28;20051;-80
2020/12/24 04:07:59;;;;;;;1.27;0.43;;;8.50;99.90;;;;;;5002091;28;20060;-79
2020/12/24 04:10:25;;;;;;;6.32;0.25;;;8.40;99.90;;;;;;5001738;28;20113;-77
2020/12/24 04:12:50;;;;;;;1.10;0.20;;;8.40;99.90;;;;;;5013754;28;20190;-79
2020/12/24 04:15:16;;;;;;;2.13;0.40;;;8.50;99.90;;;;;;5013991;28;20050;-80
2020/12/24 04:17:41;;;;;;;0.85;0.22;;;8.40;99.90;;;;;;5007293;28;20145;-80
2020/12/24 04:20:07;;;;;;;2.47;0.32;;;8.40;99.90;;;;;;5006601;28;20116;-79
2020/12/24 04:22:32;;;;;;;2.78;0.40;;;8.50;99.90;;;;;;5000516;28;20086;-81
2020/12/24 04:24:59;;;;;;;1.48;0.50;;;8.40;99.90;;;;;;4997314;28;20203;-81
2020/12/24 04:27:24;;;;;;;9.85;0.50;;;8.40;99.90;;;;;;5002609;28;20050;-80
2020/12/24 04:29:50;;;;;;;0.65;0.32;;;8.50;99.90;;;;;;4998192;28;20123;-82
2020/12/24 04:32:16;;;;;;;1.42;0.30;;;8.50;99.90;;;;;;5000799;28;20069;-81
2020/12/24 04:34:41;;;;;;;3.15;0.40;;;8.40;99.90;;;;;;4994913;28;20709;-80
2020/12/24 04:37:07;;;;;;;3.30;0.50;;;8.40;99.90;;;;;;4997984;28;20090;-81
2020/12/24 04:39:33;;;;;;;2.95;0.68;;;8.40;99.90;;;;;;4998881;28;20046;-80
2020/12/24 04:41:59;;;;;;;3.60;1.05;;;8.40;99.90;;;;;;4996982;28;20034;-79
2020/12/24 04:44:28;;;;;;;2.00;0.60;;;8.40;99.90;;;;;;4995248;28;20045;-80
2020/12/24 04:46:57;;;;;;;3.10;0.80;;;8.40;99.90;;;;;;4999642;28;20098;-79
2020/12/24 04:49:27;;;;;;;1.15;0.40;;;8.40;99.90;;;;;;4996131;28;20149;-80
2020/12/24 04:51:53;;;;;;;1.30;0.40;;;8.40;99.90;;;;;;5016457;28;20192;-80
2020/12/24 04:54:18;;;;;;;0.65;0.40;;;8.40;99.90;;;;;;5023210;28;20109;-79
2020/12/24 04:56:44;;;;;;;3.05;0.43;;;8.40;99.90;;;;;;5023096;28;20154;-79
2020/12/24 04:59:10;;;;;;;0.35;0.32;;;8.40;99.90;;;;;;5016393;28;20053;-77
2020/12/24 05:01:36;;;;;;;1.35;0.40;;;8.40;99.90;;;;;;5021045;28;20059;-78
2020/12/24 05:04:02;;;;;;;2.25;0.28;;;8.40;99.90;;;;;;4998425;28;20526;-80
2020/12/24 05:06:28;;;;;;;0.50;0.28;;;8.40;99.90;;;;;;5017212;28;20255;-79
2020/12/24 05:08:58;;;;;;;0.75;0.30;;;8.40;99.90;;;;;;5023844;28;20153;-79
2020/12/24 05:11:31;;;;;;;1.15;0.30;;;8.40;99.90;;;;;;5021505;28;20662;-80
2020/12/24 05:14:18;;;;;;;2.00;0.20;;;8.40;99.90;;;;;;5024019;28;20675;-79
2020/12/24 05:17:07;;;;;;;0.38;0.20;;;8.40;99.90;;;;;;5008086;28;20037;-79
2020/12/24 05:19:36;;;;;;;2.13;0.22;;;8.30;99.90;;;;;;5020449;28;20037;-78
2020/12/24 05:22:19;;;;;;;0.77;0.22;;;8.20;99.90;;;;;;5013479;28;20114;-79
2020/12/24 05:24:45;;;;;;;1.33;0.30;;;8.10;99.90;;;;;;5013758;28;20103;-79
2020/12/24 05:27:12;;;;;;;2.30;0.35;;;8.00;99.90;;;;;;5013056;28;20072;-78
2020/12/24 05:29:40;;;;;;;1.25;0.38;;;8.00;99.90;;;;;;5005888;28;20030;-80
2020/12/24 05:32:07;;;;;;;3.85;0.30;;;8.00;99.90;;;;;;4998835;28;20520;-80
2020/12/24 05:34:32;;;;;;;0.30;0.20;;;7.80;99.90;;;;;;5017424;28;20053;-80
2020/12/24 05:37:10;;;;;;;1.40;0.50;;;7.70;99.90;;;;;;5018861;28;20543;-81
2020/12/24 05:39:35;;;;;;;1.08;0.57;;;7.70;99.90;;;;;;5018810;28;20067;-81
2020/12/24 05:42:05;;;;;;;0.95;0.40;;;7.60;99.90;;;;;;5019816;28;20513;-80
2020/12/24 05:44:31;;;;;;;1.33;0.65;;;7.60;99.90;;;;;;5020077;28;20087;-79
2020/12/24 05:46:56;;;;;;;0.93;0.15;;;7.50;99.90;;;;;;5016581;28;20037;-79
2020/12/24 05:49:23;;;;;;;3.25;1.10;;;7.50;99.90;;;;;;5015621;28;20032;-80
2020/12/24 05:51:52;;;;;;;3.08;0.40;;;7.50;99.90;;;;;;4999936;28;20895;-80
2020/12/24 05:54:18;;;;;;;1.60;0.55;;;7.50;99.90;;;;;;5018438;28;20979;-78
2020/12/24 05:56:45;;;;;;;1.95;0.52;;;7.50;99.90;;;;;;5007942;28;20038;-80
2020/12/24 05:59:16;;;;;;;4.15;0.40;;;7.50;99.90;;;;;;4998224;28;20072;-79
2020/12/24 06:01:59;;;;;;;0.35;0.20;;;7.50;99.90;;;;;;5018077;28;20037;-80
2020/12/24 06:04:45;;;;;;;4.22;0.43;;;7.50;99.90;;;;;;5014646;28;20038;-79
2020/12/24 06:07:15;;;;;;;4.00;0.50;;;7.50;99.90;;;;;;5013979;28;20087;-79
2020/12/24 06:09:43;;;;;;;1.80;0.52;;;7.40;99.90;;;;;;5014474;28;20045;-80
2020/12/24 06:12:22;;;;;;;4.55;0.50;;;7.30;99.90;;;;;;5017984;28;20366;-80
2020/12/24 06:14:50;;;;;;;2.58;0.68;;;7.30;99.90;;;;;;5016552;28;20029;-80
2020/12/24 06:17:17;;;;;;;1.85;0.32;;;7.30;99.90;;;;;;5012088;28;20033;-79
2020/12/24 06:19:44;;;;;;;3.40;0.50;;;7.30;99.90;;;;;;5015557;28;20493;-80
2020/12/24 06:22:10;;;;;;;6.72;0.43;;;7.40;99.90;;;;;;5017107;28;20164;-80
2020/12/24 06:24:41;;;;;;;1.67;0.55;;;7.50;99.90;;;;;;5016439;28;20053;-80
2020/12/24 06:27:29;;;;;;;1.48;0.45;;;7.50;99.90;;;;;;5011041;28;20068;-80
2020/12/24 06:30:21;;;;;;;3.30;0.90;;;7.60;99.90;;;;;;5020808;28;20053;-79
2020/12/24 06:32:49;;;;;;;4.50;0.60;;;7.60;99.90;;;;;;5017656;28;20049;-80
2020/12/24 06:35:47;;;;;;;7.85;0.73;;;7.50;99.90;;;;;;5018183;28;20607;-80
2020/12/24 06:38:14;;;;;;;1.05;0.38;;;7.50;99.90;;;;;;4984487;28;20037;-81
2020/12/24 06:40:40;;;;;;;2.55;0.40;;;7.50;99.90;;;;;;4997746;28;20098;-80
2020/12/24 06:43:09;;;;;;;5.35;0.73;;;7.60;99.90;;;;;;5015751;28;20041;-81
2020/12/24 06:45:35;;;;;;;3.25;0.68;;;7.60;99.90;;;;;;5013897;28;20042;-81
2020/12/24 06:48:16;;;;;;;2.97;0.50;;;7.50;99.90;;;;;;5024764;28;20532;-80
2020/12/24 06:50:43;;;;;;;4.47;0.80;;;7.60;99.90;;;;;;5035702;28;20041;-80
2020/12/24 06:53:32;;;;;;;2.17;0.50;;;7.50;99.90;;;;;;5025732;28;20105;-81
2020/12/24 06:56:16;;;;;;;2.58;0.90;;;7.60;99.90;;;;;;5037612;28;20033;-79
2020/12/24 06:58:46;;;;;;;4.65;0.63;;;7.60;99.90;;;;;;5029022;28;20037;-80
2020/12/24 07:01:16;;;;;;;6.18;0.80;;;7.60;99.90;;;;;;5000556;28;20045;-80
2020/12/24 07:03:42;;;;;;;3.58;0.77;;;7.60;99.90;;;;;;5020048;28;20040;-81
2020/12/24 07:06:09;;;;;;;2.90;0.47;;;7.70;99.90;;;;;;5023987;28;20037;-79
2020/12/24 07:08:34;;;;;;;6.75;0.85;;;7.60;99.90;;;;;;5026050;28;20049;-79
2020/12/24 07:11:01;;;;;;;6.55;0.68;;;7.60;99.90;;;;;;5021970;28;20038;-80
2020/12/24 07:13:40;;;;;;;6.45;0.75;;;7.70;99.90;;;;;;5023080;28;20033;-80
2020/12/24 07:16:08;;;;;;;4.38;0.65;;;7.70;99.90;;;;;;5014261;28;20977;-79
2020/12/24 07:18:35;;;;;;;5.10;1.20;;;7.80;99.90;;;;;;5020668;28;20045;-79
2020/12/24 07:21:07;;;;;;;5.53;0.98;;;7.70;99.90;;;;;;5020901;28;20045;-81
2020/12/24 07:23:40;;;;;;;4.80;0.82;;;7.70;99.90;;;;;;5001761;28;20060;-79
2020/12/24 07:26:12;;;;;;;9.93;1.98;;;7.80;99.90;;;;;;5002826;28;20030;-81
2020/12/24 07:28:39;;;;;;;6.38;0.75;;;8.00;99.90;;;;;;5007707;28;20053;-81
2020/12/24 07:31:08;;;;;;;5.82;0.80;;;8.00;99.90;;;;;;5002243;28;20528;-82
2020/12/24 07:33:34;;;;;;;7.68;0.88;;;7.90;99.90;;;;;;5003749;28;20085;-82
2020/12/24 07:36:01;;;;;;;3.75;0.57;;;7.90;99.90;;;;;;5005098;28;20097;-82
2020/12/24 07:38:29;;;;;;;8.05;0.85;;;7.90;99.90;;;;;;5017021;28;20113;-81
2020/12/24 07:40:55;;;;;;;4.53;0.93;;;8.00;99.90;;;;;;5003007;28;20037;-82
2020/12/24 07:43:21;;;;;;;2.92;0.90;;;8.00;99.60;;;;;;5018256;28;20032;-81
2020/12/24 07:45:47;;;;;;;3.67;0.75;;;8.10;97.90;;;;;;5022029;28;20436;-79
2020/12/24 07:48:21;;;;;;;11.25;1.70;;;8.10;98.00;;;;;;5019561;28;20045;-80
2020/12/24 07:50:48;;;;;;;8.85;1.38;;;8.10;98.00;;;;;;5001515;28;20041;-82
2020/12/24 07:53:24;;;;;;;5.95;1.17;;;8.20;95.80;;;;;;4999362;28;20109;-82
2020/12/24 07:55:50;;;;;;;9.05;0.85;;;8.20;95.90;;;;;;5018753;28;20045;-81
2020/12/24 07:58:19;;;;;;;6.28;1.35;;;8.30;94.40;;;;;;5000076;28;20025;-82
2020/12/24 08:00:46;;;;;;;8.20;1.13;;;8.30;94.00;;;;;;5001243;28;20073;-82
2020/12/24 08:03:15;;;;;;;9.38;1.85;;;8.30;94.40;;;;;;5017268;28;20101;-82
2020/12/24 08:05:44;;;;;;;9.75;1.52;;;8.40;93.20;;;;;;5004294;28;20088;-82
2020/12/24 08:08:10;;;;;;;6.78;1.38;;;8.50;91.50;;;;;;5032100;28;20071;-82
2020/12/24 08:10:38;;;;;;;5.63;1.17;;;8.60;91.40;;;;;;5032241;28;20064;-82
2020/12/24 08:13:04;;;;;;;10.10;0.90;;;8.60;90.40;;;;;;5018941;28;20038;-80
2020/12/24 08:15:33;;;;;;;6.75;0.85;;;8.70;90.00;;;;;;5025454;28;20034;-82
2020/12/24 08:18:01;;;;;;;8.07;1.55;;;8.70;88.80;;;;;;5009830;28;20061;-81
2020/12/24 08:20:57;;;;;;;6.10;1.10;;;8.70;89.20;;;;;;5020711;28;20604;-82
2020/12/24 08:23:44;;;;;;;9.07;1.48;;;8.60;90.20;;;;;;4964119;28;20098;-81
2020/12/24 08:26:14;;;;;;;10.68;1.08;;;8.60;89.40;;;;;;5016875;28;20524;-81
2020/12/24 08:28:49;;;;;;;3.38;0.68;;;8.60;90.10;;;;;;5008594;28;20057;-81
2020/12/24 08:31:16;;;;;;;6.97;1.02;;;8.60;89.50;;;;;;5026956;28;20059;-81
2020/12/24 08:33:50;;;;;;;2.78;0.60;;;8.70;88.20;;;;;;5025774;28;20630;-80
2020/12/24 08:36:18;;;;;;;1.38;0.40;;;8.70;87.70;;;;;;5020105;28;20257;-84
2020/12/24 08:38:44;;;;;;;1.70;0.52;;;8.60;88.10;;;;;;5023715;28;20065;-83
2020/12/24 08:41:23;;;;;;;6.15;1.30;;;8.60;87.70;;;;;;5001191;28;20632;-84
2020/12/24 08:43:51;;;;;;;5.82;0.75;;;8.60;89.70;;;;;;5013606;28;20503;-82
2020/12/24 08:46:16;;;;;;;2.80;0.50;;;8.60;88.90;;;;;;5021398;28;20049;-81
2020/12/24 08:48:42;;;;;;;8.02;1.10;;;8.50;88.70;;;;;;5020254;28;20045;-80
2020/12/24 08:51:18;;;;;;;6.72;0.98;;;8.50;89.70;;;;;;5002227;28;20037;-85
2020/12/24 08:53:44;;;;;;;4.32;0.70;;;8.50;88.80;;;;;;5020720;28;20034;-80
2020/12/24 08:56:17;;;;;;;2.58;0.70;;;8.40;89.00;;;;;;5007262;28;20058;-82
2020/12/24 08:58:48;;;;;;;1.23;0.80;;;8.40;89.20;;;;;;5004705;28;20072;-83
2020/12/24 09:01:14;;;;;;;5.38;0.63;;;8.40;89.20;;;;;;5025342;28;20041;-80
2020/12/24 09:03:39;;;;;;;5.88;0.70;;;8.40;90.00;;;;;;5017565;28;20045;-83
2020/12/24 09:06:13;;;;;;;3.83;0.73;;;8.50;89.40;;;;;;5019369;28;20855;-80
2020/12/24 09:08:40;;;;;;;3.95;0.77;;;8.50;89.50;;;;;;4997433;28;20046;-81
2020/12/24 09:11:23;;;;;;;5.55;0.63;;;8.50;89.00;;;;;;5017316;28;20611;-83
2020/12/24 09:13:55;;;;;;;4.00;0.60;;;8.50;89.00;;;;;;5020990;28;20631;-81
2020/12/24 09:16:20;;;;;;;5.40;0.50;;;8.50;90.30;;;;;;5021617;28;20486;-80
2020/12/24 09:18:46;;;;;;;3.35;0.60;;;8.50;89.00;;;;;;5020269;28;20105;-81
2020/12/24 09:21:11;;;;;;;3.20;0.70;;;8.50;89.20;;;;;;5018098;28;20037;-80
2020/12/24 09:23:37;;;;;;;6.05;0.43;;;8.50;88.70;;;;;;5017407;28;20129;-82
2020/12/24 09:26:02;;;;;;;3.63;0.50;;;8.50;88.10;;;;;;5030043;28;20033;-80
2020/12/24 09:28:29;;;;;;;4.43;0.65;;;8.60;88.40;;;;;;5029255;28;20099;-80
2020/12/24 09:31:00;;;;;;;2.00;0.55;;;8.60;89.80;;;;;;5032601;28;20037;-80
2020/12/24 09:33:26;;;;;;;2.58;0.60;;;8.60;88.90;;;;;;5025236;28;20041;-83
2020/12/24 09:35:53;;;;;;;3.33;0.60;;;8.60;88.30;;;;;;5017407;28;20061;-81
2020/12/24 09:38:18;;;;;;;3.10;0.40;;;8.60;88.10;;;;;;5015693;28;20042;-83
2020/12/24 09:40:44;;;;;;;3.88;0.85;;;8.60;88.30;;;;;;5018501;28;20060;-81
2020/12/24 09:43:10;;;;;;;3.55;0.38;;;8.60;88.00;;;;;;5018916;28;20037;-83
2020/12/24 09:45:36;;;;;;;2.55;0.60;;;8.70;88.80;;;;;;5020909;28;20045;-80
2020/12/24 09:48:02;;;;;;;5.07;0.85;;;8.70;88.30;;;;;;5016415;28;20513;-81
2020/12/24 09:50:28;;;;;;;1.27;0.60;;;8.60;88.00;;;;;;5022343;28;20103;-82
2020/12/24 09:52:54;;;;;;;1.88;0.80;;;8.70;87.50;;;;;;5019982;28;20045;-81
2020/12/24 09:55:19;;;;;;;2.08;0.50;;;8.70;87.70;;;;;;5017454;28;20050;-82
2020/12/24 09:57:45;;;;;;;2.97;0.50;;;8.70;87.20;;;;;;5019983;28;20056;-82
2020/12/24 10:00:11;;;;;;;6.07;0.70;;;8.80;87.10;;;;;;5018099;28;20038;-82
2020/12/24 10:02:38;;;;;;;4.65;0.85;;;8.80;86.50;;;;;;5002108;28;20042;-81
2020/12/24 10:05:08;;;;;;;5.78;0.63;;;8.80;86.50;;;;;;5019392;28;20061;-81
2020/12/24 10:07:34;;;;;;;3.28;0.82;;;8.90;86.20;;;;;;5018376;28;20584;-80
2020/12/24 10:10:00;;;;;;;2.53;0.40;;;8.90;86.50;;;;;;5019155;28;20052;-82
2020/12/24 10:12:27;;;;;;;1.27;0.20;;;8.90;86.40;;;;;;5019070;28;20960;-80
2020/12/24 10:14:54;;;;;;;5.82;1.65;;;9.00;85.80;;;;;;5006496;28;20402;-81
2020/12/24 10:17:23;;;;;;;1.05;0.32;;;9.10;85.80;;;;;;5029121;28;20583;-79
2020/12/24 10:19:51;;;;;;;0.98;0.40;;;9.10;85.80;;;;;;5023062;28;20521;-82
2020/12/24 10:22:18;;;;;;;3.85;0.60;;;9.20;86.60;;;;;;5019184;28;20029;-83
2020/12/24 10:24:43;;;;;;;1.27;0.57;;;9.20;85.30;;;;;;5008137;28;20030;-81
2020/12/24 10:27:10;;;;;;;3.92;0.50;;;9.30;84.30;;;;;;5036075;28;20161;-79
2020/12/24 10:29:36;;;;;;;4.65;0.40;;;9.30;84.00;;;;;;5036897;28;20053;-79
2020/12/24 10:32:01;;;;;;;4.60;0.70;;;9.30;83.50;;;;;;5029789;28;20549;-83
2020/12/24 10:34:27;;;;;;;3.50;0.82;;;9.50;84.10;;;;;;5031640;28;20077;-80
2020/12/24 10:36:54;;;;;;;4.07;0.75;;;9.50;83.50;;;;;;5037504;28;20042;-80
2020/12/24 10:39:20;;;;;;;1.52;0.47;;;9.50;82.50;;;;;;5024140;28;20098;-81
2020/12/24 10:41:51;;;;;;;2.45;0.55;;;9.50;83.50;;;;;;5022559;28;20061;-82
2020/12/24 10:44:17;;;;;;;0.73;0.50;;;9.40;83.20;;;;;;5019637;28;20537;-81
2020/12/24 10:46:44;;;;;;;2.58;0.50;;;9.40;82.30;;;;;;5022754;28;20132;-82
2020/12/24 10:49:10;;;;;;;3.33;0.60;;;9.30;82.20;;;;;;5000146;28;20124;-82
2020/12/24 10:51:35;;;;;;;3.30;0.73;;;9.30;83.30;;;;;;5020016;28;20029;-82
2020/12/24 10:54:01;;;;;;;3.72;0.52;;;9.40;83.70;;;;;;5025327;28;20038;-80
2020/12/24 10:56:26;;;;;;;3.95;0.47;;;9.30;83.10;;;;;;5016355;28;20049;-83
2020/12/24 10:58:52;;;;;;;2.65;0.50;;;9.30;83.00;;;;;;5019458;28;20542;-80
2020/12/24 11:01:19;;;;;;;2.42;0.40;;;9.30;83.10;;;;;;5024519;28;20033;-80
2020/12/24 11:03:46;;;;;;;1.48;0.30;;;9.30;83.30;;;;;;5014610;28;20477;-80
2020/12/24 11:06:20;;;;;;;2.83;0.68;;;9.30;84.50;;;;;;5022195;28;20034;-82
2020/12/24 11:08:46;;;;;;;3.17;0.40;;;9.30;83.30;;;;;;5021757;28;20149;-82
2020/12/24 11:11:12;;;;;;;1.80;0.30;;;9.30;83.50;;;;;;5020339;28;20045;-81
2020/12/24 11:13:39;;;;;;;0.63;0.30;;;9.30;82.90;;;;;;5015408;28;20497;-81
2020/12/24 11:16:05;;;;;;;7.97;0.47;;;9.20;83.20;;;;;;5023332;28;20034;-80
2020/12/24 11:18:30;;;;;;;4.80;0.43;;;9.20;83.10;;;;;;5017502;28;20507;-78
2020/12/24 11:20:56;;;;;;;1.95;0.30;;;9.20;83.50;;;;;;5000794;28;20052;-80
2020/12/24 11:23:22;;;;;;;0.85;0.40;;;9.10;83.20;;;;;;5020558;28;20033;-82
2020/12/24 11:25:48;;;;;;;0.73;0.10;;;9.10;83.30;;;;;;5024030;28;20077;-81
2020/12/24 11:28:13;;;;;;;0.28;0.20;;;9.10;83.60;;;;;;5015325;28;20038;-82
2020/12/24 11:30:39;;;;;;;2.03;0.30;;;9.00;83.20;;;;;;5019242;28;20045;-82
2020/12/24 11:33:05;;;;;;;0.55;0.20;;;9.00;83.80;;;;;;5007002;28;20048;-82
2020/12/24 11:35:30;;;;;;;1.38;0.40;;;9.10;84.40;;;;;;5018849;28;20034;-83
2020/12/24 11:37:56;;;;;;;0.68;0.40;;;9.10;83.90;;;;;;5016145;28;20030;-83
2020/12/24 11:40:21;;;;;;;0.85;0.40;;;9.20;83.80;;;;;;5016163;28;20045;-83
2020/12/24 11:42:47;;;;;;;2.38;0.70;;;9.20;83.90;;;;;;5017817;28;20040;-83
2020/12/24 11:45:13;;;;;;;2.28;0.50;;;9.20;83.50;;;;;;5003061;28;20121;-82
2020/12/24 11:47:38;;;;;;;1.50;0.40;;;9.20;83.20;;;;;;5029933;28;20041;-82
2020/12/24 11:50:04;;;;;;;1.55;0.20;;;9.20;83.20;;;;;;5031197;28;20070;-80
2020/12/24 11:52:33;;;;;;;0.68;0.20;;;9.20;83.70;;;;;;5013036;28;20251;-79
2020/12/24 11:54:59;;;;;;;3.08;0.52;;;9.20;82.90;;;;;;5032962;28;20064;-80
2020/12/24 11:57:25;;;;;;;1.35;0.52;;;9.40;83.40;;;;;;5029294;28;20029;-80
2020/12/24 11:59:51;;;;;;;2.55;0.38;;;9.40;83.40;;;;;;5029761;28;20037;-80
2020/12/24 12:02:16;;;;;;;0.80;0.50;;;9.40;83.30;;;;;;5024948;28;20048;-81
2020/12/24 12:04:42;;;;;;;4.07;0.50;;;9.40;82.80;;;;;;5006786;28;20048;-82
2020/12/24 12:07:07;;;;;;;1.17;0.30;;;9.40;82.60;;;;;;5024486;28;20056;-82
2020/12/24 12:09:33;;;;;;;1.02;0.30;;;9.50;82.40;;;;;;5025769;28;20088;-80
2020/12/24 12:11:59;;;;;;;0.50;0.13;;;9.50;81.40;;;;;;5027910;28;20105;-80
2020/12/24 12:14:24;;;;;;;0.93;0.50;;;9.40;82.10;;;;;;5023069;28;20040;-80
2020/12/24 12:16:49;;;;;;;1.42;0.28;;;9.40;82.50;;;;;;5023543;28;20038;-81
2020/12/24 12:19:15;;;;;;;0.77;0.30;;;9.50;82.00;;;;;;5020391;28;20078;-82
2020/12/24 12:21:41;;;;;;;1.27;0.45;;;9.40;82.30;;;;;;5025812;28;20183;-82
2020/12/24 12:24:06;;;;;;;1.42;0.63;;;9.50;82.10;;;;;;5015824;28;20038;-80
2020/12/24 12:26:32;;;;;;;0.88;0.30;;;9.60;82.00;;;;;;5021027;28;20037;-80
2020/12/24 12:28:57;;;;;;;0.30;0.20;;;9.50;81.40;;;;;;5011291;28;20535;-79
2020/12/24 12:31:24;;;;;;;1.08;0.25;;;9.50;81.90;;;;;;5023392;28;20038;-81
2020/12/24 12:33:51;;;;;;;1.05;0.32;;;9.50;81.90;;;;;;5026249;28;20034;-80
2020/12/24 12:36:20;;;;;;;2.72;0.30;;;9.60;81.60;;;;;;5000993;28;20113;-80
2020/12/24 12:38:47;;;;;;;1.27;0.35;;;9.60;81.50;;;;;;5020763;28;20042;-80
2020/12/24 12:41:14;;;;;;;1.92;0.45;;;9.70;80.60;;;;;;5019803;28;20045;-82
2020/12/24 12:43:41;;;;;;;0.50;0.25;;;9.70;80.40;;;;;;5022090;28;20038;-81
2020/12/24 12:46:06;;;;;;;3.10;0.40;;;9.60;80.80;;;;;;5022118;28;20038;-81
2020/12/24 12:48:33;;;;;;;1.45;0.43;;;9.60;80.10;;;;;;5018391;28;20586;-81
2020/12/24 12:50:59;;;;;;;2.03;0.45;;;9.50;80.50;;;;;;5022295;28;20037;-81
2020/12/24 12:53:25;;;;;;;0.98;0.40;;;9.50;80.60;;;;;;5019485;28;20117;-82
2020/12/24 12:55:50;;;;;;;1.80;0.50;;;9.50;80.80;;;;;;5001393;28;20106;-80